createdAt,value
2018-12-01T00:00:52.936Z,50.23
2018-12-01T00:03:22.696Z,44.23
2018-12-01T00:05:57.978Z,48.57
2018-12-01T00:08:27.782Z,52.20
2018-12-01T00:10:57.421Z,59.03
2018-12-01T00:13:27.266Z,58.33
2018-12-01T00:15:56.952Z,52.43
2018-12-01T00:18:26.548Z,53.63
2018-12-01T00:20:56.436Z,49.03
2018-12-01T00:23:26.228Z,50.40
2018-12-01T00:25:55.966Z,48.53
2018-12-01T00:28:25.576Z,54.13
2018-12-01T00:30:55.491Z,51.27
2018-12-01T00:33:24.960Z,43.83
2018-12-01T00:35:54.730Z,49.57
2018-12-01T00:38:24.162Z,56.30
2018-12-01T00:40:53.826Z,51.90
2018-12-01T00:43:23.413Z,46.10
2018-12-01T00:45:53.047Z,48.77
2018-12-01T00:48:22.797Z,49.37
2018-12-01T00:50:52.376Z,56.10
2018-12-01T00:53:21.924Z,49.57
2018-12-01T00:55:51.566Z,52.43
2018-12-01T00:58:21.182Z,55.37
2018-12-01T01:00:50.716Z,54.33
2018-12-01T01:03:26.899Z,50.57
2018-12-01T01:05:56.482Z,51.67
2018-12-01T01:08:26.155Z,49.27
2018-12-01T01:10:55.876Z,49.33
2018-12-01T01:13:25.553Z,47.60
2018-12-01T01:15:55.185Z,45.23
2018-12-01T01:18:24.797Z,51.27
2018-12-01T01:20:54.391Z,46.23
2018-12-01T01:23:23.979Z,46.47
2018-12-01T01:25:54.019Z,51.30
2018-12-01T01:28:23.755Z,49.43
2018-12-01T01:30:53.440Z,45.43
2018-12-01T01:33:29.340Z,47.87
2018-12-01T01:35:59.038Z,51.20
2018-12-01T01:38:29.023Z,45.57
2018-12-01T01:41:03.594Z,51.10
2018-12-01T01:43:33.137Z,45.00
2018-12-01T01:46:02.765Z,47.90
2018-12-01T01:48:32.367Z,43.13
2018-12-01T01:51:02.002Z,42.20
2018-12-01T01:53:31.585Z,47.07
2018-12-01T01:56:01.227Z,40.90
2018-12-01T01:58:31.103Z,48.33
2018-12-01T02:01:00.707Z,41.00
2018-12-01T02:03:30.324Z,47.70
2018-12-01T02:05:59.916Z,41.17
2018-12-01T02:08:29.435Z,44.20
2018-12-01T02:10:59.452Z,41.20
2018-12-01T02:13:29.086Z,42.50
2018-12-01T02:15:58.703Z,49.60
2018-12-01T02:18:28.560Z,42.87
2018-12-01T02:20:58.360Z,41.70
2018-12-01T02:23:28.123Z,43.53
2018-12-01T02:25:57.753Z,36.37
2018-12-01T02:28:27.264Z,46.90
2018-12-01T02:30:56.814Z,39.67
2018-12-01T02:33:29.291Z,45.67
2018-12-01T02:35:58.938Z,43.00
2018-12-01T02:38:28.791Z,42.20
2018-12-01T02:40:58.312Z,44.13
2018-12-01T02:43:28.340Z,55.63
2018-12-01T02:46:08.975Z,41.17
2018-12-01T02:48:38.822Z,38.90
2018-12-01T02:51:08.592Z,39.20
2018-12-01T02:53:38.158Z,44.50
2018-12-01T02:56:07.748Z,46.80
2018-12-01T02:58:37.545Z,43.60
2018-12-01T03:01:07.270Z,44.10
2018-12-01T03:03:37.190Z,42.27
2018-12-01T03:06:06.799Z,37.07
2018-12-01T03:08:36.317Z,48.83
2018-12-01T03:11:05.954Z,46.40
2018-12-01T03:13:35.614Z,46.47
2018-12-01T03:16:05.584Z,44.60
2018-12-01T03:18:35.447Z,47.00
2018-12-01T03:21:05.359Z,41.10
2018-12-01T03:23:35.050Z,41.50
2018-12-01T03:26:07.005Z,44.57
2018-12-01T03:28:36.637Z,43.20
2018-12-01T03:31:06.234Z,39.57
2018-12-01T03:33:35.875Z,43.37
2018-12-01T03:36:05.449Z,50.57
2018-12-01T03:38:34.961Z,42.37
2018-12-01T03:41:04.730Z,47.03
2018-12-01T03:43:34.269Z,45.83
2018-12-01T03:46:03.837Z,43.43
2018-12-01T03:48:33.499Z,41.10
2018-12-01T03:51:03.140Z,42.60
2018-12-01T03:53:32.948Z,40.77
2018-12-01T03:56:02.544Z,41.07
2018-12-01T03:58:32.149Z,38.63
2018-12-01T04:01:01.808Z,42.03
2018-12-01T04:03:32.075Z,41.53
2018-12-01T04:06:01.573Z,46.27
2018-12-01T04:08:31.210Z,42.80
2018-12-01T04:11:00.807Z,43.97
2018-12-01T04:13:30.459Z,42.57
2018-12-01T04:16:00.169Z,40.53
2018-12-01T04:18:29.698Z,46.83
2018-12-01T04:20:59.339Z,47.70
2018-12-01T04:23:28.917Z,47.23
2018-12-01T04:25:58.559Z,46.43
2018-12-01T04:28:28.316Z,57.83
2018-12-01T04:30:58.048Z,42.63
2018-12-01T04:33:27.532Z,45.73
2018-12-01T04:35:57.270Z,51.03
2018-12-01T04:38:26.892Z,48.43
2018-12-01T04:40:56.488Z,43.07
2018-12-01T04:43:26.290Z,46.57
2018-12-01T04:45:55.878Z,42.23
2018-12-01T04:48:25.642Z,43.43
2018-12-01T04:50:55.078Z,48.47
2018-12-01T04:53:24.852Z,44.33
2018-12-01T04:55:54.618Z,43.33
2018-12-01T04:58:24.290Z,51.00
2018-12-01T05:00:54.226Z,47.17
2018-12-01T05:03:23.891Z,45.17
2018-12-01T05:05:53.508Z,52.93
2018-12-01T05:08:23.129Z,47.77
2018-12-01T05:10:52.683Z,50.00
2018-12-01T05:13:22.302Z,43.57
2018-12-01T05:15:51.908Z,51.90
2018-12-01T05:18:21.558Z,45.27
2018-12-01T05:20:51.106Z,48.63
2018-12-01T05:23:20.745Z,48.90
2018-12-01T05:25:50.511Z,41.67
2018-12-01T05:28:20.004Z,47.50
2018-12-01T05:30:49.534Z,47.77
2018-12-01T05:33:19.172Z,56.63
2018-12-01T05:35:48.739Z,51.53
2018-12-01T05:38:18.478Z,52.40
2018-12-01T05:40:48.001Z,48.70
2018-12-01T05:43:17.594Z,52.17
2018-12-01T05:45:47.042Z,46.00
2018-12-01T05:48:16.567Z,49.40
2018-12-01T05:50:45.981Z,50.23
2018-12-01T05:53:15.921Z,52.00
2018-12-01T05:55:45.638Z,48.53
2018-12-01T05:58:15.134Z,65.97
2018-12-01T06:00:44.755Z,54.83
2018-12-01T06:03:14.469Z,51.27
2018-12-01T06:05:43.937Z,51.13
2018-12-01T06:08:13.747Z,51.90
2018-12-01T06:10:43.259Z,48.47
2018-12-01T06:13:13.089Z,58.67
2018-12-01T06:15:42.962Z,53.07
2018-12-01T06:18:12.691Z,61.47
2018-12-01T06:20:42.743Z,58.43
2018-12-01T06:23:12.416Z,55.57
2018-12-01T06:25:42.178Z,55.10
2018-12-01T06:28:12.031Z,58.30
2018-12-01T06:30:41.565Z,58.77
2018-12-01T06:33:11.163Z,64.50
2018-12-01T06:35:40.793Z,74.27
2018-12-01T06:38:10.473Z,54.47
2018-12-01T06:40:40.121Z,52.23
2018-12-01T06:43:09.725Z,65.80
2018-12-01T06:45:39.293Z,54.23
2018-12-01T06:48:09.111Z,53.33
2018-12-01T06:50:39.133Z,55.93
2018-12-01T06:53:09.066Z,55.90
2018-12-01T06:55:38.714Z,58.40
2018-12-01T06:58:08.232Z,63.57
2018-12-01T07:00:37.934Z,60.93
2018-12-01T07:03:07.399Z,53.13
2018-12-01T07:05:36.996Z,54.63
2018-12-01T07:08:06.806Z,55.83
2018-12-01T07:10:36.660Z,56.80
2018-12-01T07:13:07.129Z,57.03
2018-12-01T07:15:37.775Z,58.23
2018-12-01T07:18:18.353Z,62.03
2018-12-01T07:20:47.948Z,57.93
2018-12-01T07:23:17.531Z,59.57
2018-12-01T07:25:47.119Z,61.83
2018-12-01T07:28:16.779Z,65.17
2018-12-01T07:30:46.333Z,58.13
2018-12-01T07:33:16.271Z,58.20
2018-12-01T07:35:45.780Z,72.73
2018-12-01T07:38:15.525Z,58.00
2018-12-01T07:40:45.064Z,64.63
2018-12-01T07:43:14.706Z,63.10
2018-12-01T07:45:44.375Z,60.50
2018-12-01T07:48:13.817Z,65.50
2018-12-01T07:50:43.691Z,64.27
2018-12-01T07:53:17.408Z,62.77
2018-12-01T07:55:43.267Z,61.60
2018-12-01T07:58:12.910Z,70.47
2018-12-01T08:00:42.655Z,68.67
2018-12-01T08:03:12.117Z,63.87
2018-12-01T08:05:41.816Z,69.47
2018-12-01T08:08:11.497Z,70.27
2018-12-01T08:10:41.089Z,61.27
2018-12-01T08:13:11.265Z,58.10
2018-12-01T08:15:40.863Z,65.20
2018-12-01T08:18:10.513Z,65.43
2018-12-01T08:20:39.993Z,67.40
2018-12-01T08:23:09.922Z,71.57
2018-12-01T08:25:39.518Z,64.70
2018-12-01T08:28:10.337Z,61.37
2018-12-01T08:30:40.424Z,61.27
2018-12-01T08:33:10.309Z,65.93
2018-12-01T08:35:40.053Z,70.13
2018-12-01T08:38:09.821Z,70.10
2018-12-01T08:40:39.754Z,68.20
2018-12-01T08:43:09.336Z,69.97
2018-12-01T08:45:38.991Z,68.80
2018-12-01T08:48:09.136Z,67.97
2018-12-01T08:50:39.187Z,73.13
2018-12-01T08:53:12.610Z,71.57
2018-12-01T08:55:44.057Z,69.70
2018-12-01T08:58:13.891Z,74.93
2018-12-01T09:00:43.547Z,71.90
2018-12-01T09:03:29.317Z,71.77
2018-12-01T09:05:59.909Z,76.17
2018-12-01T09:08:31.985Z,75.40
2018-12-01T09:11:01.921Z,72.23
2018-12-01T09:13:33.653Z,78.23
2018-12-01T09:16:03.329Z,71.97
2018-12-01T09:18:33.032Z,76.73
2018-12-01T09:21:02.518Z,77.00
2018-12-01T09:23:32.281Z,74.60
2018-12-01T09:26:01.733Z,73.23
2018-12-01T09:30:16.263Z,75.40
2018-12-01T09:32:45.723Z,70.73
2018-12-01T09:35:15.370Z,67.20
2018-12-01T09:37:45.253Z,67.70
2018-12-01T09:40:16.561Z,79.40
2018-12-01T09:42:46.730Z,72.17
2018-12-01T09:45:21.280Z,72.20
2018-12-01T09:47:51.463Z,68.23
2018-12-01T09:50:21.079Z,67.17
2018-12-01T09:52:53.509Z,70.83
2018-12-01T09:55:24.191Z,62.47
2018-12-01T09:57:54.060Z,72.57
2018-12-01T10:00:31.188Z,68.87
2018-12-01T10:03:03.946Z,68.23
2018-12-01T10:05:34.115Z,73.70
2018-12-01T10:08:03.985Z,71.33
2018-12-01T10:10:33.932Z,71.70
2018-12-01T10:13:03.898Z,74.57
2018-12-01T10:15:35.807Z,71.27
2018-12-01T10:18:06.747Z,74.00
2018-12-01T10:20:36.520Z,74.20
2018-12-01T10:23:11.241Z,87.40
2018-12-01T10:25:41.578Z,79.93
2018-12-01T10:28:11.758Z,86.53
2018-12-01T10:30:41.468Z,80.20
2018-12-01T10:33:11.343Z,86.23
2018-12-01T10:35:40.910Z,79.17
2018-12-01T10:38:15.815Z,77.67
2018-12-01T10:40:45.499Z,77.33
2018-12-01T10:43:15.029Z,80.47
2018-12-01T10:45:44.870Z,81.87
2018-12-01T10:48:14.553Z,77.93
2018-12-01T10:50:44.174Z,87.27
2018-12-01T10:53:13.733Z,86.93
2018-12-01T10:55:43.413Z,89.00
2018-12-01T10:58:16.634Z,76.07
2018-12-01T11:00:52.224Z,76.73
2018-12-01T11:03:27.944Z,80.43
2018-12-01T11:05:58.431Z,86.13
2018-12-01T11:08:28.070Z,76.90
2018-12-01T11:10:57.910Z,88.23
2018-12-01T11:13:27.651Z,85.00
2018-12-01T11:15:57.439Z,83.47
2018-12-01T11:18:27.370Z,83.27
2018-12-01T11:20:56.996Z,77.77
2018-12-01T11:23:26.627Z,80.83
2018-12-01T11:25:56.395Z,82.80
2018-12-01T11:28:26.095Z,83.37
2018-12-01T11:30:55.955Z,84.07
2018-12-01T11:33:25.653Z,88.13
2018-12-01T11:35:55.502Z,82.07
2018-12-01T11:38:25.339Z,85.93
2018-12-01T11:40:55.065Z,83.83
2018-12-01T11:43:24.713Z,87.47
2018-12-01T11:45:54.367Z,92.93
2018-12-01T11:48:23.886Z,87.80
2018-12-01T11:50:53.684Z,90.33
2018-12-01T11:53:23.527Z,82.73
2018-12-01T11:55:53.628Z,89.20
2018-12-01T11:58:23.257Z,90.50
2018-12-01T12:00:52.735Z,84.50
2018-12-01T12:03:22.513Z,86.67
2018-12-01T12:05:52.133Z,78.63
2018-12-01T12:08:22.826Z,88.73
2018-12-01T12:10:52.574Z,91.87
2018-12-01T12:13:23.151Z,82.37
2018-12-01T12:15:52.888Z,86.93
2018-12-01T12:18:22.857Z,86.73
2018-12-01T12:20:53.008Z,88.20
2018-12-01T12:23:22.730Z,84.77
2018-12-01T12:25:52.525Z,85.40
2018-12-01T12:28:22.292Z,88.30
2018-12-01T12:30:52.057Z,81.33
2018-12-01T12:33:22.099Z,90.77
2018-12-01T12:35:51.656Z,83.13
2018-12-01T12:38:21.584Z,94.43
2018-12-01T12:40:51.089Z,83.03
2018-12-01T12:43:20.874Z,82.33
2018-12-01T12:45:50.896Z,81.53
2018-12-01T12:48:20.906Z,84.90
2018-12-01T12:50:53.087Z,95.60
2018-12-01T12:53:20.039Z,91.80
2018-12-01T12:55:49.641Z,79.90
2018-12-01T12:58:19.231Z,88.30
2018-12-01T13:00:48.907Z,91.77
2018-12-01T13:03:18.755Z,82.93
2018-12-01T13:05:48.639Z,89.27
2018-12-01T13:08:19.574Z,89.27
2018-12-01T13:10:52.192Z,95.10
2018-12-01T13:13:22.003Z,89.33
2018-12-01T13:15:52.160Z,84.70
2018-12-01T13:18:21.906Z,99.63
2018-12-01T13:20:51.704Z,90.63
2018-12-01T13:23:21.480Z,90.87
2018-12-01T13:25:51.285Z,86.07
2018-12-01T13:28:22.542Z,91.87
2018-12-01T13:30:55.557Z,95.60
2018-12-01T13:33:26.081Z,99.27
2018-12-01T13:35:56.748Z,86.40
2018-12-01T13:38:26.830Z,90.07
2018-12-01T13:40:56.572Z,92.27
2018-12-01T13:43:26.788Z,93.17
2018-12-01T13:45:56.498Z,97.10
2018-12-01T13:48:26.583Z,94.47
2018-12-01T13:50:56.220Z,97.07
2018-12-01T13:53:25.938Z,99.87
2018-12-01T13:55:55.762Z,93.33
2018-12-01T13:58:25.466Z,94.40
2018-12-01T14:00:55.374Z,99.80
2018-12-01T14:03:25.206Z,94.23
2018-12-01T14:05:55.568Z,94.17
2018-12-01T14:08:26.650Z,97.90
2018-12-01T14:10:56.627Z,83.83
2018-12-01T14:13:26.440Z,99.80
2018-12-01T14:15:56.378Z,96.80
2018-12-01T14:18:26.272Z,96.70
2018-12-01T14:20:56.454Z,95.33
2018-12-01T14:23:26.481Z,87.80
2018-12-01T14:25:56.306Z,92.93
2018-12-01T14:28:26.296Z,93.40
2018-12-01T14:30:56.382Z,100.63
2018-12-01T14:33:26.031Z,100.40
2018-12-01T14:35:55.977Z,92.67
2018-12-01T14:38:25.882Z,101.27
2018-12-01T14:40:55.803Z,94.53
2018-12-01T14:43:25.685Z,99.23
2018-12-01T14:45:55.359Z,104.50
2018-12-01T14:48:25.223Z,103.57
2018-12-01T14:50:55.360Z,107.37
2018-12-01T14:53:25.192Z,109.40
2018-12-01T14:55:54.884Z,118.07
2018-12-01T14:58:24.373Z,106.87
2018-12-01T15:00:54.131Z,103.27
2018-12-01T15:03:23.966Z,109.23
2018-12-01T15:05:53.884Z,110.50
2018-12-01T15:08:23.508Z,111.00
2018-12-01T15:10:53.495Z,125.63
2018-12-01T15:13:23.795Z,118.63
2018-12-01T15:15:53.773Z,104.70
2018-12-01T15:18:23.724Z,105.50
2018-12-01T15:20:53.473Z,107.40
2018-12-01T15:23:23.824Z,115.00
2018-12-01T15:25:53.765Z,105.83
2018-12-01T15:28:23.522Z,118.67
2018-12-01T15:30:53.176Z,102.00
2018-12-01T15:33:22.900Z,107.47
2018-12-01T15:35:52.520Z,108.47
2018-12-01T15:38:22.499Z,95.43
2018-12-01T15:40:52.917Z,90.73
2018-12-01T15:43:22.721Z,101.93
2018-12-01T15:45:54.224Z,97.63
2018-12-01T15:48:24.068Z,99.00
2018-12-01T15:50:53.708Z,99.47
2018-12-01T15:53:23.712Z,94.23
2018-12-01T15:55:53.474Z,97.93
2018-12-01T15:58:23.138Z,93.30
2018-12-01T16:00:52.970Z,94.70
2018-12-01T16:03:22.968Z,95.00
2018-12-01T16:05:52.841Z,104.30
2018-12-01T16:08:22.793Z,98.93
2018-12-01T16:10:52.277Z,98.17
2018-12-01T16:13:23.054Z,93.50
2018-12-01T16:15:59.019Z,93.43
2018-12-01T16:18:28.792Z,98.83
2018-12-01T16:20:58.842Z,100.23
2018-12-01T16:23:28.435Z,92.90
2018-12-01T16:25:58.325Z,94.67
2018-12-01T16:28:27.991Z,98.30
2018-12-01T16:30:57.743Z,102.70
2018-12-01T16:33:28.042Z,88.00
2018-12-01T16:35:59.134Z,93.60
2018-12-01T16:38:30.964Z,98.43
2018-12-01T16:41:11.270Z,99.97
2018-12-01T16:43:40.882Z,95.53
2018-12-01T16:46:10.563Z,105.40
2018-12-01T16:48:40.322Z,111.10
2018-12-01T16:51:10.876Z,104.07
2018-12-01T16:53:42.025Z,102.07
2018-12-01T16:56:11.961Z,119.03
2018-12-01T16:58:41.596Z,114.47
2018-12-01T17:01:11.143Z,122.53
2018-12-01T17:03:40.926Z,121.47
2018-12-01T17:06:12.981Z,125.97
2018-12-01T17:08:42.945Z,131.80
2018-12-01T17:11:12.507Z,122.53
2018-12-01T17:13:42.551Z,127.10
2018-12-01T17:16:12.262Z,126.27
2018-12-01T17:18:41.846Z,130.60
2018-12-01T17:21:11.649Z,138.57
2018-12-01T17:23:41.283Z,134.27
2018-12-01T17:26:11.243Z,124.40
2018-12-01T17:28:41.092Z,138.50
2018-12-01T17:31:10.841Z,133.60
2018-12-01T17:33:40.436Z,130.70
2018-12-01T17:36:10.245Z,126.93
2018-12-01T17:38:39.855Z,126.87
2018-12-01T17:41:11.747Z,124.53
2018-12-01T17:43:52.466Z,126.47
2018-12-01T17:46:22.213Z,122.07
2018-12-01T17:48:51.923Z,127.37
2018-12-01T17:51:21.552Z,131.33
2018-12-01T17:53:53.103Z,130.17
2018-12-01T17:56:23.059Z,127.47
2018-12-01T17:58:52.675Z,135.17
2018-12-01T18:01:22.305Z,136.83
2018-12-01T18:03:51.878Z,131.90
2018-12-01T18:06:21.671Z,129.40
2018-12-01T18:08:51.551Z,137.30
2018-12-01T18:11:21.115Z,131.57
2018-12-01T18:13:51.043Z,137.20
2018-12-01T18:16:20.813Z,127.23
2018-12-01T18:18:50.541Z,131.90
2018-12-01T18:21:20.248Z,136.20
2018-12-01T18:23:49.995Z,134.60
2018-12-01T18:26:19.591Z,127.10
2018-12-01T18:28:50.603Z,131.17
2018-12-01T18:31:22.808Z,131.63
2018-12-01T18:33:56.925Z,130.10
2018-12-01T18:36:26.728Z,138.97
2018-12-01T18:38:56.921Z,143.00
2018-12-01T18:41:26.465Z,139.83
2018-12-01T18:43:56.075Z,141.03
2018-12-01T18:46:25.744Z,155.97
2018-12-01T18:48:55.363Z,151.67
2018-12-01T18:51:25.203Z,145.70
2018-12-01T18:53:54.987Z,151.10
2018-12-01T18:56:24.609Z,154.77
2018-12-01T18:58:54.473Z,159.53
2018-12-01T19:01:23.943Z,155.90
2018-12-01T19:03:53.595Z,149.80
2018-12-01T19:06:23.731Z,150.87
2018-12-01T19:08:53.442Z,151.10
2018-12-01T19:11:23.014Z,168.47
2018-12-01T19:13:53.235Z,156.20
2018-12-01T19:16:22.815Z,159.60
2018-12-01T19:18:52.456Z,158.87
2018-12-01T19:21:22.134Z,155.30
2018-12-01T19:23:51.917Z,169.17
2018-12-01T19:26:21.904Z,158.90
2018-12-01T19:28:51.753Z,159.23
2018-12-01T19:31:21.459Z,169.20
2018-12-01T19:33:51.095Z,168.90
2018-12-01T19:36:20.815Z,164.17
2018-12-01T19:38:50.535Z,165.73
2018-12-01T19:41:20.316Z,168.33
2018-12-01T19:43:49.839Z,165.73
2018-12-01T19:46:19.470Z,153.97
2018-12-01T19:48:49.043Z,173.63
2018-12-01T19:51:18.622Z,168.53
2018-12-01T19:53:48.365Z,177.70
2018-12-01T19:56:18.022Z,161.17
2018-12-01T19:58:47.980Z,170.37
2018-12-01T20:01:17.606Z,166.53
2018-12-01T20:03:47.338Z,169.43
2018-12-01T20:06:17.154Z,175.37
2018-12-01T20:08:46.882Z,170.10
2018-12-01T20:11:16.295Z,171.37
2018-12-01T20:13:46.738Z,181.00
2018-12-01T20:16:27.159Z,181.97
2018-12-01T20:18:57.042Z,168.83
2018-12-01T20:21:27.205Z,188.70
2018-12-01T20:23:57.171Z,183.90
2018-12-01T20:26:26.825Z,180.33
2018-12-01T20:28:56.573Z,181.27
2018-12-01T20:31:26.169Z,193.23
2018-12-01T20:33:57.412Z,184.67
2018-12-01T20:36:37.232Z,192.70
2018-12-01T20:39:15.594Z,190.10
2018-12-01T20:41:45.298Z,183.87
2018-12-01T20:44:15.375Z,184.03
2018-12-01T20:46:45.028Z,186.23
2018-12-01T20:49:14.661Z,191.13
2018-12-01T20:51:44.146Z,202.63
2018-12-01T20:54:35.369Z,195.00
2018-12-01T20:57:12.019Z,180.90
2018-12-01T20:59:41.900Z,203.67
2018-12-01T21:02:11.727Z,184.83
2018-12-01T21:04:41.639Z,202.63
2018-12-01T21:07:11.552Z,200.27
2018-12-01T21:09:41.477Z,206.80
2018-12-01T21:12:12.213Z,200.07
2018-12-01T21:14:42.090Z,193.57
2018-12-01T21:17:11.651Z,210.97
2018-12-01T21:19:41.356Z,214.37
2018-12-01T21:22:11.401Z,214.40
2018-12-01T21:24:41.011Z,213.43
2018-12-01T21:27:10.573Z,210.80
2018-12-01T21:29:40.553Z,202.33
2018-12-01T21:32:10.241Z,208.53
2018-12-01T21:34:40.043Z,204.83
2018-12-01T21:37:09.649Z,206.63
2018-12-01T21:39:39.265Z,199.87
2018-12-01T21:42:08.877Z,199.30
2018-12-01T21:44:38.723Z,204.50
2018-12-01T21:47:08.567Z,220.93
2018-12-01T21:49:38.379Z,217.77
2018-12-01T21:52:08.211Z,209.27
2018-12-01T21:54:38.118Z,214.13
2018-12-01T21:57:07.749Z,218.73
2018-12-01T21:59:37.343Z,215.43
2018-12-01T22:02:07.772Z,214.97
2018-12-01T22:04:37.888Z,216.77
2018-12-01T22:07:07.525Z,227.30
2018-12-01T22:09:37.031Z,238.27
2018-12-01T22:12:06.732Z,218.87
2018-12-01T22:14:36.372Z,224.63
2018-12-01T22:17:06.937Z,220.80
2018-12-01T22:19:36.650Z,217.03
2018-12-01T22:22:06.681Z,229.37
2018-12-01T22:24:36.206Z,233.67
2018-12-01T22:27:06.104Z,226.23
2018-12-01T22:29:36.066Z,217.97
2018-12-01T22:32:06.037Z,231.67
2018-12-01T22:34:35.668Z,228.03
2018-12-01T22:37:05.432Z,228.43
2018-12-01T22:39:35.126Z,223.07
2018-12-01T22:42:04.664Z,230.47
2018-12-01T22:44:34.424Z,242.90
2018-12-01T22:47:04.316Z,251.57
2018-12-01T22:49:33.858Z,233.37
2018-12-01T22:52:03.533Z,247.27
2018-12-01T22:54:33.428Z,239.87
2018-12-01T22:57:03.342Z,234.60
2018-12-01T22:59:32.954Z,232.90
2018-12-01T23:02:02.454Z,237.57
2018-12-01T23:04:32.350Z,236.93
2018-12-01T23:07:02.268Z,226.67
2018-12-01T23:09:31.975Z,230.70
2018-12-01T23:12:01.550Z,230.27
2018-12-01T23:14:31.490Z,217.27
2018-12-01T23:17:01.356Z,218.83
2018-12-01T23:19:31.044Z,209.73
2018-12-01T23:22:00.526Z,217.57
2018-12-01T23:24:30.262Z,230.20
2018-12-01T23:27:00.120Z,217.10
2018-12-01T23:29:29.704Z,235.07
2018-12-01T23:31:59.308Z,224.73
2018-12-01T23:34:28.980Z,229.20
2018-12-01T23:36:58.689Z,226.10
2018-12-01T23:39:28.431Z,233.73
2018-12-01T23:41:58.093Z,254.53
2018-12-01T23:44:29.343Z,244.23
2018-12-01T23:46:59.081Z,249.90
2018-12-01T23:49:28.760Z,234.10
2018-12-01T23:51:58.402Z,240.93
2018-12-01T23:54:27.999Z,237.40
2018-12-01T23:56:57.504Z,233.70
2018-12-01T23:59:27.068Z,234.87
